Time;durP1;ratioP1;P1;durP2;ratioP2;P2;SDS_P1;SDS_P2;PMS_P1;PMS_P2;Temp;Humidity;BMP_temperature;BMP_pressure;BME280_temperature;BME280_humidity;BME280_pressure;Samples;Min_cycle;Max_cycle;Signal;HPM_P1;HPM_P2
2022/09/12 00:00:10;;;;;;;12.02;7.38;;;;;;;;;;5018422;28;20113;-64
2022/09/12 00:02:35;;;;;;;12.70;8.13;;;;;;;;;;5001626;28;20026;-64
2022/09/12 00:05:01;;;;;;;12.75;7.82;;;;;;;;;;5004153;28;20044;-64
2022/09/12 00:07:27;;;;;;;14.38;8.05;;;;;;;;;;5002829;28;20025;-63
2022/09/12 00:09:52;;;;;;;15.85;8.23;;;;;;;;;;5002813;28;20041;-64
2022/09/12 00:12:18;;;;;;;12.43;8.18;;;;;;;;;;5003746;28;20127;-67
2022/09/12 00:14:43;;;;;;;13.52;7.30;;;;;;;;;;4997204;28;20115;-65
2022/09/12 00:17:09;;;;;;;13.90;7.78;;;;;;;;;;5004011;28;20419;-66
2022/09/12 00:19:34;;;;;;;12.20;7.75;;;;;;;;;;5005728;28;20034;-66
2022/09/12 00:22:00;;;;;;;12.23;7.40;;;;;;;;;;5001741;28;20502;-66
2022/09/12 00:24:25;;;;;;;11.10;7.45;;;;;;;;;;5002724;28;20079;-66
2022/09/12 00:26:51;;;;;;;12.13;7.53;;;;;;;;;;5000363;28;20062;-63
2022/09/12 00:29:18;;;;;;;12.23;7.82;;;;;;;;;;5003938;28;20405;-63
2022/09/12 00:31:44;;;;;;;13.02;7.28;;;;;;;;;;5015718;28;20050;-65
2022/09/12 00:34:10;;;;;;;11.40;7.80;;;;;;;;;;5004956;28;20030;-65
2022/09/12 00:36:37;;;;;;;12.25;7.70;;;;;;;;;;5002075;28;20053;-65
2022/09/12 00:39:04;;;;;;;11.63;7.53;;;;;;;;;;5002730;28;20032;-64
2022/09/12 00:41:36;;;;;;;11.77;7.15;;;;;;;;;;5000261;28;20038;-63
2022/09/12 00:44:22;;;;;;;14.23;7.47;;;;;;;;;;5001373;28;20026;-64
2022/09/12 00:47:02;;;;;;;12.77;7.70;;;;;;;;;;5001617;28;20351;-65
2022/09/12 00:49:36;;;;;;;12.45;7.95;;;;;;;;;;4996771;28;20034;-65
2022/09/12 00:52:09;;;;;;;15.25;7.20;;;;;;;;;;5002892;28;20038;-65
2022/09/12 00:54:42;;;;;;;11.00;7.25;;;;;;;;;;4999899;28;20037;-64
2022/09/12 00:57:10;;;;;;;10.98;7.07;;;;;;;;;;5000559;28;20362;-64
2022/09/12 00:59:53;;;;;;;12.10;6.93;;;;;;;;;;5004702;28;20029;-65
2022/09/12 01:02:18;;;;;;;10.00;7.15;;;;;;;;;;4998561;28;20597;-64
2022/09/12 01:04:44;;;;;;;12.13;7.15;;;;;;;;;;5005130;28;20105;-66
2022/09/12 01:07:11;;;;;;;14.60;7.70;;;;;;;;;;4998231;28;20065;-65
2022/09/12 01:09:37;;;;;;;12.95;7.82;;;;;;;;;;5000479;28;20042;-64
2022/09/12 01:12:03;;;;;;;10.85;7.40;;;;;;;;;;4998299;28;20164;-63
2022/09/12 01:14:30;;;;;;;13.40;8.27;;;;;;;;;;4999986;28;20056;-66
2022/09/12 01:16:55;;;;;;;18.23;7.88;;;;;;;;;;5002137;28;20038;-66
2022/09/12 01:19:49;;;;;;;14.52;8.32;;;;;;;;;;5002655;28;20093;-65
2022/09/12 01:22:24;;;;;;;10.00;6.47;;;;;;;;;;5002709;28;20033;-65
2022/09/12 01:24:52;;;;;;;11.07;6.75;;;;;;;;;;5002501;28;20129;-65
2022/09/12 01:27:40;;;;;;;11.43;7.38;;;;;;;;;;5002777;28;20480;-65
2022/09/12 01:30:23;;;;;;;9.90;6.68;;;;;;;;;;4999789;28;20545;-65
2022/09/12 01:33:20;;;;;;;14.05;7.38;;;;;;;;;;5000543;28;20389;-64
2022/09/12 01:35:57;;;;;;;14.15;7.38;;;;;;;;;;5002383;28;20111;-64
2022/09/12 01:38:36;;;;;;;11.75;6.88;;;;;;;;;;4999021;28;20084;-64
2022/09/12 01:41:23;;;;;;;10.68;7.60;;;;;;;;;;4998448;28;20031;-68
2022/09/12 01:44:03;;;;;;;14.05;7.70;;;;;;;;;;5003192;28;20052;-64
2022/09/12 01:46:41;;;;;;;12.18;6.47;;;;;;;;;;5003590;28;20037;-64
2022/09/12 01:49:36;;;;;;;13.30;7.13;;;;;;;;;;5005707;28;20085;-64
2022/09/12 01:52:11;;;;;;;10.18;7.15;;;;;;;;;;5015183;28;20044;-64
2022/09/12 01:54:53;;;;;;;11.18;7.15;;;;;;;;;;5000452;28;20051;-65
2022/09/12 01:57:26;;;;;;;11.35;6.80;;;;;;;;;;5000785;28;20412;-65
2022/09/12 01:59:56;;;;;;;10.65;6.35;;;;;;;;;;5001422;28;20691;-64
2022/09/12 02:02:32;;;;;;;9.85;6.68;;;;;;;;;;4999937;28;20462;-64
2022/09/12 02:05:08;;;;;;;11.38;6.80;;;;;;;;;;4996740;28;20034;-65
2022/09/12 02:07:48;;;;;;;9.75;6.97;;;;;;;;;;4996914;28;20564;-64
2022/09/12 02:10:16;;;;;;;11.80;6.65;;;;;;;;;;4999878;28;20580;-68
2022/09/12 02:13:13;;;;;;;9.02;6.68;;;;;;;;;;4995658;28;20034;-66
2022/09/12 02:15:46;;;;;;;12.35;7.20;;;;;;;;;;4996040;28;20034;-64
2022/09/12 02:18:14;;;;;;;10.65;7.38;;;;;;;;;;4997799;28;20105;-65
2022/09/12 02:20:42;;;;;;;12.40;7.30;;;;;;;;;;4997371;28;20059;-66
2022/09/12 02:23:14;;;;;;;11.13;7.80;;;;;;;;;;4996870;28;20042;-64
2022/09/12 02:25:43;;;;;;;13.57;7.20;;;;;;;;;;5000596;28;20378;-64
2022/09/12 02:28:21;;;;;;;11.57;7.65;;;;;;;;;;5000503;28;20281;-66
2022/09/12 02:31:00;;;;;;;10.93;7.65;;;;;;;;;;4996971;28;20034;-66
2022/09/12 02:33:56;;;;;;;13.23;6.90;;;;;;;;;;4994448;28;20043;-65
2022/09/12 02:36:43;;;;;;;12.13;7.00;;;;;;;;;;5003373;28;20068;-65
2022/09/12 02:39:08;;;;;;;11.65;7.55;;;;;;;;;;5002517;28;20659;-65
2022/09/12 02:41:34;;;;;;;12.23;7.22;;;;;;;;;;5000750;28;20045;-64
2022/09/12 02:44:00;;;;;;;9.35;7.03;;;;;;;;;;5002855;28;20041;-65
2022/09/12 02:46:37;;;;;;;13.48;7.53;;;;;;;;;;5002197;28;20061;-64
2022/09/12 02:49:03;;;;;;;10.20;7.40;;;;;;;;;;4994987;28;20049;-64
2022/09/12 02:51:28;;;;;;;12.23;7.07;;;;;;;;;;4997308;28;20061;-64
2022/09/12 02:53:54;;;;;;;11.70;6.88;;;;;;;;;;4998777;28;20568;-65
2022/09/12 02:56:27;;;;;;;9.52;6.70;;;;;;;;;;4993147;28;20100;-65
2022/09/12 02:58:54;;;;;;;12.80;7.40;;;;;;;;;;4995816;28;20069;-65
2022/09/12 03:01:45;;;;;;;12.07;7.57;;;;;;;;;;4995080;28;20042;-64
2022/09/12 03:04:20;;;;;;;13.20;7.88;;;;;;;;;;4993097;28;20187;-63
2022/09/12 03:07:08;;;;;;;9.57;6.68;;;;;;;;;;4999066;28;20124;-65
2022/09/12 03:09:51;;;;;;;10.27;7.43;;;;;;;;;;4987837;28;20513;-63
2022/09/12 03:12:20;;;;;;;10.75;6.82;;;;;;;;;;4996283;28;20513;-65
2022/09/12 03:15:25;;;;;;;12.23;7.57;;;;;;;;;;4997575;28;20592;-64
2022/09/12 03:18:19;;;;;;;11.40;6.90;;;;;;;;;;4992851;28;20372;-72
2022/09/12 03:21:01;;;;;;;11.05;7.18;;;;;;;;;;4990432;28;20049;-64
2022/09/12 03:23:29;;;;;;;10.07;6.57;;;;;;;;;;4995829;28;20606;-65
2022/09/12 03:26:25;;;;;;;12.05;6.85;;;;;;;;;;4999000;28;20038;-64
2022/09/12 03:28:51;;;;;;;10.70;6.95;;;;;;;;;;4990064;28;20048;-63
2022/09/12 03:31:18;;;;;;;8.93;6.97;;;;;;;;;;4997675;28;20117;-65
2022/09/12 03:33:44;;;;;;;10.35;7.50;;;;;;;;;;4996595;28;20034;-66
2022/09/12 03:36:29;;;;;;;10.57;6.68;;;;;;;;;;4994663;28;20117;-71
2022/09/12 03:38:55;;;;;;;11.05;7.47;;;;;;;;;;5003373;28;20026;-65
2022/09/12 03:41:20;;;;;;;9.60;6.88;;;;;;;;;;4998711;28;20038;-76
2022/09/12 03:43:46;;;;;;;11.63;7.47;;;;;;;;;;4996293;28;20026;-66
2022/09/12 03:46:12;;;;;;;12.70;7.07;;;;;;;;;;4997012;28;20058;-65
2022/09/12 03:48:38;;;;;;;13.23;7.30;;;;;;;;;;5001341;28;20066;-66
2022/09/12 03:51:06;;;;;;;15.93;7.43;;;;;;;;;;5001596;28;20692;-65
2022/09/12 03:53:32;;;;;;;9.43;6.53;;;;;;;;;;4997484;28;20567;-65
2022/09/12 03:55:58;;;;;;;10.63;7.30;;;;;;;;;;4997661;28;20026;-64
2022/09/12 03:58:28;;;;;;;8.45;6.38;;;;;;;;;;4994425;28;20081;-65
2022/09/12 04:00:53;;;;;;;9.40;6.72;;;;;;;;;;4999894;28;20434;-66
2022/09/12 04:03:19;;;;;;;13.40;7.47;;;;;;;;;;4999892;28;20088;-65
2022/09/12 04:05:45;;;;;;;11.32;7.10;;;;;;;;;;4995176;28;20026;-68
2022/09/12 04:08:10;;;;;;;11.52;7.10;;;;;;;;;;4998328;28;20042;-65
2022/09/12 04:10:36;;;;;;;11.20;6.88;;;;;;;;;;5000426;28;20121;-64
2022/09/12 04:13:01;;;;;;;9.82;7.22;;;;;;;;;;4996541;28;20031;-66
2022/09/12 04:15:26;;;;;;;11.23;7.25;;;;;;;;;;4997347;28;20600;-66
2022/09/12 04:17:52;;;;;;;10.73;6.65;;;;;;;;;;5003613;28;20026;-66
2022/09/12 04:20:18;;;;;;;11.48;7.15;;;;;;;;;;4998123;28;20497;-68
2022/09/12 04:22:43;;;;;;;9.57;6.30;;;;;;;;;;5000558;28;20533;-65
2022/09/12 04:25:08;;;;;;;11.43;7.50;;;;;;;;;;5003974;28;20441;-66
2022/09/12 04:27:34;;;;;;;10.70;6.57;;;;;;;;;;4997511;28;20107;-64
2022/09/12 04:30:01;;;;;;;12.55;7.47;;;;;;;;;;5005977;28;20029;-65
2022/09/12 04:32:28;;;;;;;11.20;7.78;;;;;;;;;;5002870;28;20117;-67
2022/09/12 04:34:55;;;;;;;11.27;7.28;;;;;;;;;;4989184;28;20079;-65
2022/09/12 04:37:22;;;;;;;11.38;6.57;;;;;;;;;;4987176;28;20073;-65
2022/09/12 04:39:48;;;;;;;11.45;7.03;;;;;;;;;;4988353;28;20034;-68
2022/09/12 04:42:14;;;;;;;13.73;7.15;;;;;;;;;;4988223;28;20018;-66
2022/09/12 04:44:39;;;;;;;10.55;7.10;;;;;;;;;;5003108;28;20283;-65
2022/09/12 04:47:05;;;;;;;10.45;7.35;;;;;;;;;;4997714;28;20023;-65
2022/09/12 04:49:30;;;;;;;14.25;7.55;;;;;;;;;;4999754;28;20350;-65
2022/09/12 04:51:56;;;;;;;16.30;7.45;;;;;;;;;;5002714;28;20054;-66
2022/09/12 04:54:21;;;;;;;9.85;6.80;;;;;;;;;;4996958;28;20021;-63
2022/09/12 04:56:48;;;;;;;15.02;7.47;;;;;;;;;;4998782;28;20025;-65
2022/09/12 04:59:15;;;;;;;10.35;6.97;;;;;;;;;;4999812;28;20034;-65
2022/09/12 05:01:41;;;;;;;12.20;7.13;;;;;;;;;;4997408;28;20073;-64
2022/09/12 05:04:06;;;;;;;11.40;7.40;;;;;;;;;;4999136;28;20461;-65
2022/09/12 05:06:34;;;;;;;13.43;7.50;;;;;;;;;;5004355;28;20046;-64
2022/09/12 05:09:01;;;;;;;11.00;7.10;;;;;;;;;;5005425;28;20477;-64
2022/09/12 05:11:29;;;;;;;14.85;7.75;;;;;;;;;;4998072;28;20371;-64
2022/09/12 05:13:57;;;;;;;9.65;6.65;;;;;;;;;;5000361;28;20483;-67
2022/09/12 05:16:26;;;;;;;9.32;6.68;;;;;;;;;;5000271;28;20030;-65
2022/09/12 05:18:52;;;;;;;11.75;7.50;;;;;;;;;;5002896;28;20076;-65
2022/09/12 05:21:23;;;;;;;13.18;8.15;;;;;;;;;;5000560;28;20061;-64
2022/09/12 05:23:56;;;;;;;12.15;8.13;;;;;;;;;;5003134;28;20037;-70
2022/09/12 05:26:22;;;;;;;11.27;7.53;;;;;;;;;;4995461;28;20418;-65
2022/09/12 05:28:49;;;;;;;12.20;7.38;;;;;;;;;;5003975;28;20475;-65
2022/09/12 05:31:19;;;;;;;13.75;8.00;;;;;;;;;;5004262;28;20030;-63
2022/09/12 05:33:47;;;;;;;11.55;7.35;;;;;;;;;;4994842;28;20033;-65
2022/09/12 05:36:28;;;;;;;13.55;8.07;;;;;;;;;;5001763;28;20025;-65
2022/09/12 05:38:54;;;;;;;12.18;7.80;;;;;;;;;;4994635;28;20026;-65
2022/09/12 05:41:23;;;;;;;13.70;7.22;;;;;;;;;;4995916;28;20509;-64
2022/09/12 05:43:52;;;;;;;10.88;7.38;;;;;;;;;;4996362;28;20120;-65
2022/09/12 05:46:20;;;;;;;16.80;8.20;;;;;;;;;;4998405;28;20034;-65
2022/09/12 05:48:47;;;;;;;12.57;7.90;;;;;;;;;;4998380;28;20056;-64
2022/09/12 05:51:18;;;;;;;13.45;7.30;;;;;;;;;;5007965;28;20025;-66
2022/09/12 05:53:45;;;;;;;13.52;7.20;;;;;;;;;;5003806;28;20097;-64
2022/09/12 05:56:16;;;;;;;13.98;7.75;;;;;;;;;;5002127;28;20040;-64
2022/09/12 05:58:47;;;;;;;13.38;7.90;;;;;;;;;;4997489;28;20053;-69
2022/09/12 06:01:15;;;;;;;12.63;8.25;;;;;;;;;;4993596;28;20465;-64
2022/09/12 06:03:43;;;;;;;12.90;8.48;;;;;;;;;;4999614;28;20037;-64
2022/09/12 06:06:12;;;;;;;12.90;8.15;;;;;;;;;;5002769;28;20084;-63
2022/09/12 06:08:42;;;;;;;13.30;8.07;;;;;;;;;;4998460;28;20039;-64
2022/09/12 06:11:11;;;;;;;14.30;8.15;;;;;;;;;;4996794;28;20038;-64
2022/09/12 06:13:41;;;;;;;13.45;8.40;;;;;;;;;;4998058;28;20034;-68
2022/09/12 06:16:16;;;;;;;17.00;8.43;;;;;;;;;;4998819;28;20030;-65
2022/09/12 06:18:46;;;;;;;13.43;8.57;;;;;;;;;;4997991;28;20044;-65
2022/09/12 06:21:12;;;;;;;11.10;7.97;;;;;;;;;;5002787;28;20021;-63
2022/09/12 06:23:39;;;;;;;15.38;8.57;;;;;;;;;;4999064;28;20390;-64
2022/09/12 06:26:06;;;;;;;14.85;8.07;;;;;;;;;;4997200;28;20494;-62
2022/09/12 06:28:39;;;;;;;16.05;8.95;;;;;;;;;;4997581;28;20053;-64
2022/09/12 06:31:10;;;;;;;10.48;8.45;;;;;;;;;;4999211;28;20053;-69
2022/09/12 06:33:38;;;;;;;11.65;8.05;;;;;;;;;;4997663;28;20125;-66
2022/09/12 06:36:24;;;;;;;15.95;8.48;;;;;;;;;;4997041;28;20026;-68
2022/09/12 06:38:57;;;;;;;13.50;8.02;;;;;;;;;;4994946;28;20143;-68
2022/09/12 06:41:24;;;;;;;11.98;8.05;;;;;;;;;;4994899;28;20778;-65
2022/09/12 06:43:50;;;;;;;12.13;7.75;;;;;;;;;;4996959;28;20038;-66
2022/09/12 06:46:15;;;;;;;12.45;8.55;;;;;;;;;;5000920;28;20137;-66
2022/09/12 06:48:41;;;;;;;14.13;9.02;;;;;;;;;;4992355;28;20382;-65
2022/09/12 06:51:12;;;;;;;14.05;9.10;;;;;;;;;;4998581;28;20022;-66
2022/09/12 06:53:38;;;;;;;15.43;9.90;;;;;;;;;;4996913;28;20021;-66
2022/09/12 06:56:03;;;;;;;14.10;9.55;;;;;;;;;;5001516;28;20033;-64
2022/09/12 06:58:29;;;;;;;16.67;10.77;;;;;;;;;;4996132;28;20053;-66
2022/09/12 07:01:02;;;;;;;16.35;10.38;;;;;;;;;;5002716;28;21593;-65
2022/09/12 07:03:28;;;;;;;19.63;10.88;;;;;;;;;;4994717;28;20451;-64
2022/09/12 07:05:54;;;;;;;29.25;11.13;;;;;;;;;;5001655;28;20029;-65
2022/09/12 07:08:19;;;;;;;29.95;11.00;;;;;;;;;;5001204;28;20084;-65
2022/09/12 07:10:45;;;;;;;22.63;11.30;;;;;;;;;;5001349;28;20041;-66
2022/09/12 07:13:11;;;;;;;22.83;11.32;;;;;;;;;;4999286;28;20046;-64
2022/09/12 07:15:36;;;;;;;42.67;12.15;;;;;;;;;;4999079;28;20069;-66
2022/09/12 07:18:02;;;;;;;19.50;10.63;;;;;;;;;;5000808;28;20716;-65
2022/09/12 07:20:28;;;;;;;22.50;10.52;;;;;;;;;;4994275;28;20540;-65
2022/09/12 07:22:54;;;;;;;20.35;10.27;;;;;;;;;;4997870;28;20041;-65
2022/09/12 07:25:19;;;;;;;21.05;9.77;;;;;;;;;;4998119;28;20048;-63
2022/09/12 07:27:45;;;;;;;17.85;10.45;;;;;;;;;;5001870;28;20068;-64
2022/09/12 07:30:10;;;;;;;21.52;9.75;;;;;;;;;;4997911;28;20399;-64
2022/09/12 07:32:36;;;;;;;19.15;9.80;;;;;;;;;;4994612;28;20028;-67
2022/09/12 07:35:02;;;;;;;15.57;10.23;;;;;;;;;;4993527;28;22367;-64
2022/09/12 07:37:30;;;;;;;16.55;9.35;;;;;;;;;;4996081;28;20221;-65
2022/09/12 07:39:56;;;;;;;14.90;9.13;;;;;;;;;;4994398;28;20042;-64
2022/09/12 07:42:22;;;;;;;16.42;9.43;;;;;;;;;;4999549;28;21384;-65
2022/09/12 07:44:47;;;;;;;17.98;9.43;;;;;;;;;;4998467;28;20478;-64
2022/09/12 07:47:13;;;;;;;16.98;9.55;;;;;;;;;;4998916;28;20030;-64
2022/09/12 07:49:38;;;;;;;23.55;10.63;;;;;;;;;;4994599;28;20032;-64
2022/09/12 07:52:04;;;;;;;17.08;10.65;;;;;;;;;;5002288;28;20087;-64
2022/09/12 07:54:32;;;;;;;13.27;8.00;;;;;;;;;;5002619;28;20406;-64
2022/09/12 07:56:57;;;;;;;11.73;8.50;;;;;;;;;;5000872;28;20113;-64
2022/09/12 07:59:23;;;;;;;10.50;7.80;;;;;;;;;;4997540;28;20121;-65
2022/09/12 08:01:48;;;;;;;14.82;8.93;;;;;;;;;;5001924;28;20045;-64
2022/09/12 08:04:13;;;;;;;12.07;8.10;;;;;;;;;;4998311;28;20053;-63
2022/09/12 08:06:39;;;;;;;16.70;8.35;;;;;;;;;;5002204;28;20042;-64
2022/09/12 08:09:06;;;;;;;15.98;8.02;;;;;;;;;;4998955;28;20019;-65
2022/09/12 08:11:32;;;;;;;16.52;8.27;;;;;;;;;;4984113;28;20046;-65
2022/09/12 08:13:58;;;;;;;12.20;7.70;;;;;;;;;;4980123;28;20137;-67
2022/09/12 08:16:29;;;;;;;9.27;7.20;;;;;;;;;;4976018;28;20372;-64
2022/09/12 08:18:54;;;;;;;13.70;7.68;;;;;;;;;;4978607;28;20035;-64
2022/09/12 08:21:23;;;;;;;13.18;7.15;;;;;;;;;;4982726;28;20510;-64
2022/09/12 08:24:00;;;;;;;12.05;7.32;;;;;;;;;;4989391;28;20034;-65
2022/09/12 08:26:25;;;;;;;10.57;6.70;;;;;;;;;;4982186;28;20030;-66
2022/09/12 08:28:52;;;;;;;13.38;7.60;;;;;;;;;;4979029;28;20503;-65
2022/09/12 08:31:19;;;;;;;12.15;7.35;;;;;;;;;;4979840;28;20031;-65
2022/09/12 08:33:44;;;;;;;9.00;7.03;;;;;;;;;;4981294;28;20503;-66
2022/09/12 08:36:16;;;;;;;10.32;6.82;;;;;;;;;;4979671;28;20063;-65
2022/09/12 08:38:44;;;;;;;9.48;6.55;;;;;;;;;;4983374;28;20054;-67
2022/09/12 08:41:33;;;;;;;9.63;6.60;;;;;;;;;;4982700;28;20042;-65
2022/09/12 08:44:20;;;;;;;10.00;6.78;;;;;;;;;;4975082;28;20034;-65
2022/09/12 08:47:03;;;;;;;9.25;6.10;;;;;;;;;;4983703;28;20513;-64
2022/09/12 08:49:40;;;;;;;8.52;5.93;;;;;;;;;;4976918;28;20219;-65
2022/09/12 08:52:13;;;;;;;11.80;6.50;;;;;;;;;;4983103;28;20162;-64
2022/09/12 08:54:39;;;;;;;8.25;6.57;;;;;;;;;;4981592;28;20644;-65
2022/09/12 08:57:05;;;;;;;10.88;6.35;;;;;;;;;;4983798;28;20023;-65
2022/09/12 08:59:41;;;;;;;12.93;6.68;;;;;;;;;;5006049;28;20026;-64
2022/09/12 09:02:27;;;;;;;15.50;6.68;;;;;;;;;;5005288;28;20367;-65
2022/09/12 09:05:28;;;;;;;10.65;6.55;;;;;;;;;;4980062;28;20455;-64
2022/09/12 09:08:28;;;;;;;11.45;7.00;;;;;;;;;;4977670;28;20030;-65
2022/09/12 09:11:02;;;;;;;11.00;6.20;;;;;;;;;;4981441;28;20030;-64
2022/09/12 09:16:49;;;;;;;12.27;6.85;;;;;;;;;;4980799;28;20045;-64
2022/09/12 09:19:23;;;;;;;11.45;5.93;;;;;;;;;;4976158;28;20384;-64
2022/09/12 09:21:55;;;;;;;12.70;5.82;;;;;;;;;;4979776;28;20089;-66
2022/09/12 09:24:27;;;;;;;7.55;6.10;;;;;;;;;;4985380;28;20466;-66
2022/09/12 09:27:25;;;;;;;8.75;6.47;;;;;;;;;;4972208;28;20441;-65
2022/09/12 09:29:54;;;;;;;7.32;5.80;;;;;;;;;;4993201;28;20140;-64
2022/09/12 09:32:30;;;;;;;7.75;5.57;;;;;;;;;;5002247;28;20564;-65
2022/09/12 09:34:56;;;;;;;9.02;5.43;;;;;;;;;;4996500;28;20038;-66
2022/09/12 09:37:42;;;;;;;13.10;6.78;;;;;;;;;;4995743;28;20084;-65
2022/09/12 09:40:27;;;;;;;7.68;5.80;;;;;;;;;;4997265;28;20502;-64
2022/09/12 09:43:05;;;;;;;15.38;6.65;;;;;;;;;;5000610;28;20379;-64
2022/09/12 09:45:30;;;;;;;12.30;6.45;;;;;;;;;;4997179;28;20033;-64
2022/09/12 09:48:19;;;;;;;8.82;5.65;;;;;;;;;;5001988;28;20026;-63
2022/09/12 09:50:47;;;;;;;16.25;6.63;;;;;;;;;;4995221;28;20525;-67
2022/09/12 09:53:33;;;;;;;9.63;6.20;;;;;;;;;;4997198;28;20478;-64
2022/09/12 09:56:02;;;;;;;8.50;5.10;;;;;;;;;;4989250;28;20167;-66
2022/09/12 09:58:32;;;;;;;7.30;5.43;;;;;;;;;;5005317;28;20053;-66
2022/09/12 10:01:01;;;;;;;7.40;4.95;;;;;;;;;;4998043;28;20081;-67
2022/09/12 10:03:32;;;;;;;10.38;5.60;;;;;;;;;;5002715;28;20088;-65
2022/09/12 10:06:07;;;;;;;10.13;6.13;;;;;;;;;;4994381;28;20101;-64
2022/09/12 10:08:36;;;;;;;7.45;5.68;;;;;;;;;;5001905;28;20049;-63
2022/09/12 10:11:06;;;;;;;10.07;5.43;;;;;;;;;;5002496;28;20038;-63
2022/09/12 10:13:56;;;;;;;9.00;5.75;;;;;;;;;;5001626;28;20037;-64
2022/09/12 10:16:23;;;;;;;7.43;5.15;;;;;;;;;;4994114;28;20034;-65
2022/09/12 10:18:51;;;;;;;6.85;4.93;;;;;;;;;;4997533;28;20030;-64
2022/09/12 10:21:26;;;;;;;7.40;5.03;;;;;;;;;;4999227;28;20383;-65
2022/09/12 10:24:02;;;;;;;8.55;4.70;;;;;;;;;;4996245;28;20018;-64
2022/09/12 10:26:34;;;;;;;9.40;4.93;;;;;;;;;;4996592;28;20030;-64
2022/09/12 10:29:05;;;;;;;6.33;4.43;;;;;;;;;;4995197;28;20030;-64
2022/09/12 10:31:53;;;;;;;7.28;4.60;;;;;;;;;;5004583;28;20037;-63
2022/09/12 10:34:29;;;;;;;8.63;4.70;;;;;;;;;;5002793;28;20034;-64
2022/09/12 10:37:02;;;;;;;10.05;4.10;;;;;;;;;;4999431;28;20379;-63
2022/09/12 10:39:29;;;;;;;6.35;3.97;;;;;;;;;;4996222;28;20390;-63
2022/09/12 10:41:55;;;;;;;6.40;4.10;;;;;;;;;;4995666;28;20105;-64
2022/09/12 10:44:25;;;;;;;7.53;4.47;;;;;;;;;;4996427;28;20113;-64
2022/09/12 10:46:51;;;;;;;7.10;4.00;;;;;;;;;;5002754;28;20032;-64
2022/09/12 10:49:21;;;;;;;6.63;4.95;;;;;;;;;;4995588;28;20034;-64
2022/09/12 10:51:47;;;;;;;7.25;4.63;;;;;;;;;;4993795;28;20034;-65
2022/09/12 10:54:16;;;;;;;7.05;4.65;;;;;;;;;;4999284;28;20053;-64
2022/09/12 10:57:03;;;;;;;7.70;5.10;;;;;;;;;;4999310;28;20544;-65
2022/09/12 10:59:36;;;;;;;8.32;5.22;;;;;;;;;;4998715;28;20038;-64
2022/09/12 11:02:20;;;;;;;10.73;6.18;;;;;;;;;;5000981;28;20029;-66
2022/09/12 11:04:51;;;;;;;6.95;4.70;;;;;;;;;;4994047;28;20039;-64
2022/09/12 11:07:32;;;;;;;8.13;4.88;;;;;;;;;;4999244;28;20069;-64
2022/09/12 11:10:03;;;;;;;7.03;4.70;;;;;;;;;;4991045;28;20034;-65
2022/09/12 11:12:58;;;;;;;5.88;3.90;;;;;;;;;;4999684;28;20042;-72
2022/09/12 11:15:29;;;;;;;7.65;4.32;;;;;;;;;;4981296;28;20049;-65
2022/09/12 11:18:08;;;;;;;8.02;3.90;;;;;;;;;;5000050;28;20560;-64
2022/09/12 11:20:44;;;;;;;5.95;3.92;;;;;;;;;;4993520;28;20121;-65
2022/09/12 11:23:32;;;;;;;8.77;4.22;;;;;;;;;;5004104;28;20108;-65
2022/09/12 11:26:10;;;;;;;6.15;3.88;;;;;;;;;;4996299;28;20401;-64
2022/09/12 11:28:54;;;;;;;5.55;3.88;;;;;;;;;;5007315;28;20524;-64
2022/09/12 11:31:38;;;;;;;4.93;3.40;;;;;;;;;;5003614;28;20038;-62
2022/09/12 11:34:09;;;;;;;6.13;3.55;;;;;;;;;;5005303;28;20554;-64
2022/09/12 11:36:49;;;;;;;7.68;4.10;;;;;;;;;;4994221;28;20038;-64
2022/09/12 11:39:30;;;;;;;4.40;3.42;;;;;;;;;;5004200;28;20025;-64
2022/09/12 11:42:01;;;;;;;4.72;3.13;;;;;;;;;;5003999;28;20071;-70
2022/09/12 11:44:49;;;;;;;3.80;3.03;;;;;;;;;;5003878;28;20457;-66
2022/09/12 11:47:17;;;;;;;4.95;3.67;;;;;;;;;;5007468;28;20526;-62
2022/09/12 11:49:51;;;;;;;4.95;3.20;;;;;;;;;;5009187;28;20036;-62
2022/09/12 11:52:36;;;;;;;5.05;3.40;;;;;;;;;;5008512;28;20027;-61
2022/09/12 11:55:07;;;;;;;4.78;3.72;;;;;;;;;;4999957;28;20037;-65
2022/09/12 11:57:59;;;;;;;4.28;3.55;;;;;;;;;;5009888;28;20096;-63
2022/09/12 12:00:27;;;;;;;5.10;3.03;;;;;;;;;;5001789;28;20041;-65
2022/09/12 12:03:30;;;;;;;4.00;2.90;;;;;;;;;;5008598;28;20022;-65
2022/09/12 12:06:07;;;;;;;5.07;2.80;;;;;;;;;;4998111;28;20038;-69
2022/09/12 12:08:39;;;;;;;5.05;2.88;;;;;;;;;;5009542;28;20455;-65
2022/09/12 12:11:06;;;;;;;2.70;2.50;;;;;;;;;;5003207;28;20394;-65
2022/09/12 12:13:50;;;;;;;3.40;2.35;;;;;;;;;;5006762;28;20037;-63
2022/09/12 12:16:32;;;;;;;2.35;2.15;;;;;;;;;;5007150;28;20518;-67
2022/09/12 12:19:06;;;;;;;2.55;2.35;;;;;;;;;;4999787;28;20088;-63
2022/09/12 12:21:39;;;;;;;2.88;2.50;;;;;;;;;;5009770;28;20114;-63
2022/09/12 12:24:08;;;;;;;3.30;2.47;;;;;;;;;;5007644;28;20032;-65
2022/09/12 12:26:40;;;;;;;4.13;2.47;;;;;;;;;;5001981;28;20533;-64
2022/09/12 12:29:21;;;;;;;4.07;2.55;;;;;;;;;;5002601;28;20129;-65
2022/09/12 12:32:00;;;;;;;2.83;2.50;;;;;;;;;;5007004;28;20034;-64
2022/09/12 12:34:33;;;;;;;3.72;2.50;;;;;;;;;;4999063;28;20046;-65
2022/09/12 12:37:19;;;;;;;5.38;2.53;;;;;;;;;;4998414;28;20041;-64
2022/09/12 12:39:48;;;;;;;4.80;2.53;;;;;;;;;;5002277;28;20046;-66
2022/09/12 12:42:35;;;;;;;3.53;2.38;;;;;;;;;;4996812;28;20019;-62
2022/09/12 12:45:16;;;;;;;3.13;2.47;;;;;;;;;;5001728;28;20062;-64
2022/09/12 12:47:55;;;;;;;3.88;2.20;;;;;;;;;;4995115;28;20051;-63
2022/09/12 12:50:25;;;;;;;3.50;2.50;;;;;;;;;;5007918;28;20049;-63
2022/09/12 12:53:00;;;;;;;3.63;2.30;;;;;;;;;;5005360;28;20030;-62
2022/09/12 12:55:41;;;;;;;4.13;2.53;;;;;;;;;;5008951;28;20033;-65
2022/09/12 12:58:41;;;;;;;2.83;2.25;;;;;;;;;;5001483;28;20584;-65
2022/09/12 13:01:15;;;;;;;3.33;2.50;;;;;;;;;;4997494;28;20042;-70
2022/09/12 13:03:45;;;;;;;2.88;2.58;;;;;;;;;;5007238;28;20042;-65
2022/09/12 13:06:37;;;;;;;3.03;2.22;;;;;;;;;;5006992;28;20029;-62
2022/09/12 13:09:07;;;;;;;3.83;2.40;;;;;;;;;;5004567;28;20090;-64
2022/09/12 13:11:38;;;;;;;4.05;2.53;;;;;;;;;;5008363;28;20046;-66
2022/09/12 13:14:34;;;;;;;2.55;2.30;;;;;;;;;;5007406;28;20034;-62
2022/09/12 13:17:05;;;;;;;3.60;2.33;;;;;;;;;;4998917;28;20045;-67
2022/09/12 13:19:38;;;;;;;3.13;2.20;;;;;;;;;;5008161;28;20725;-68
2022/09/12 13:22:08;;;;;;;3.40;2.33;;;;;;;;;;5004993;28;20034;-63
2022/09/12 13:24:53;;;;;;;4.82;2.58;;;;;;;;;;5002783;28;20037;-63
2022/09/12 13:27:24;;;;;;;2.53;2.28;;;;;;;;;;4996099;28;20033;-62
2022/09/12 13:30:05;;;;;;;3.22;2.58;;;;;;;;;;5005644;28;20025;-62
2022/09/12 13:32:31;;;;;;;4.60;2.85;;;;;;;;;;5000533;28;20122;-62
2022/09/12 13:35:17;;;;;;;3.13;2.25;;;;;;;;;;4998100;28;20117;-63
2022/09/12 13:38:15;;;;;;;2.78;2.40;;;;;;;;;;4992730;28;20101;-63
2022/09/12 13:41:14;;;;;;;2.58;1.95;;;;;;;;;;4999918;28;20107;-63
2022/09/12 13:43:45;;;;;;;4.25;2.20;;;;;;;;;;5002608;28;20046;-62
2022/09/12 13:46:24;;;;;;;1.73;1.63;;;;;;;;;;5003547;28;20030;-63
2022/09/12 13:48:50;;;;;;;2.33;2.13;;;;;;;;;;5000089;28;20041;-63
2022/09/12 13:51:29;;;;;;;2.15;1.63;;;;;;;;;;4994736;28;20364;-62
2022/09/12 13:53:58;;;;;;;2.75;2.20;;;;;;;;;;4997832;28;20038;-64
2022/09/12 13:56:23;;;;;;;3.60;1.95;;;;;;;;;;5003754;28;20034;-64
2022/09/12 13:58:55;;;;;;;2.65;1.75;;;;;;;;;;5003025;28;20033;-64
2022/09/12 14:01:22;;;;;;;1.88;1.60;;;;;;;;;;4996565;28;20030;-62
2022/09/12 14:06:48;;;;;;;2.58;1.60;;;;;;;;;;5003138;28;20505;-62
2022/09/12 14:09:37;;;;;;;2.88;1.90;;;;;;;;;;5000883;28;20034;-64
2022/09/12 14:12:04;;;;;;;5.03;1.67;;;;;;;;;;4998938;28;20053;-64
2022/09/12 14:14:35;;;;;;;3.28;1.92;;;;;;;;;;4994841;28;20034;-64
2022/09/12 14:17:15;;;;;;;2.30;1.60;;;;;;;;;;5000426;28;20038;-63
2022/09/12 14:19:42;;;;;;;2.63;1.45;;;;;;;;;;4998591;28;20038;-63
2022/09/12 14:22:16;;;;;;;1.75;1.52;;;;;;;;;;4997647;28;20029;-63
2022/09/12 14:24:41;;;;;;;1.98;1.60;;;;;;;;;;4999827;28;20050;-64
2022/09/12 14:27:09;;;;;;;1.90;1.60;;;;;;;;;;4999427;28;20512;-64
2022/09/12 14:29:34;;;;;;;3.15;1.60;;;;;;;;;;5001318;28;20536;-64
2022/09/12 14:32:02;;;;;;;1.25;1.15;;;;;;;;;;4998195;28;20070;-64
2022/09/12 14:34:28;;;;;;;1.65;1.55;;;;;;;;;;4997198;28;20054;-65
2022/09/12 14:36:55;;;;;;;2.22;1.42;;;;;;;;;;4994696;28;20108;-62
2022/09/12 14:39:36;;;;;;;3.05;1.55;;;;;;;;;;4998502;28;20030;-63
2022/09/12 14:42:11;;;;;;;4.72;1.52;;;;;;;;;;4997019;28;20092;-62
2022/09/12 14:44:37;;;;;;;1.85;1.60;;;;;;;;;;4998779;28;20037;-63
2022/09/12 14:47:22;;;;;;;1.35;1.25;;;;;;;;;;4995773;28;20062;-63
2022/09/12 14:49:50;;;;;;;2.38;1.42;;;;;;;;;;4993582;28;20038;-63
2022/09/12 14:52:28;;;;;;;1.55;1.45;;;;;;;;;;4995239;28;20072;-63
2022/09/12 14:55:02;;;;;;;1.70;1.60;;;;;;;;;;5004090;28;20034;-63
2022/09/12 14:57:32;;;;;;;1.90;1.80;;;;;;;;;;5001698;28;20038;-64
2022/09/12 15:00:13;;;;;;;2.30;1.83;;;;;;;;;;5003853;28;20482;-63
2022/09/12 15:02:40;;;;;;;2.80;1.77;;;;;;;;;;5002000;28;20042;-63
2022/09/12 15:05:05;;;;;;;3.13;2.00;;;;;;;;;;4996448;28;20066;-67
2022/09/12 15:07:39;;;;;;;3.40;1.77;;;;;;;;;;4993638;28;20066;-63
2022/09/12 15:10:22;;;;;;;2.55;1.60;;;;;;;;;;4996766;28;20030;-63
2022/09/12 15:12:48;;;;;;;1.67;1.58;;;;;;;;;;4992913;28;20073;-64